createdAt,value
2018-04-17T00:01:58.565Z,12.70
2018-04-17T00:04:26.110Z,12.60
2018-04-17T00:06:53.636Z,12.50
2018-04-17T00:09:21.198Z,12.50
2018-04-17T00:11:48.738Z,12.40
2018-04-17T00:14:16.250Z,12.40
2018-04-17T00:16:43.775Z,12.30
2018-04-17T00:19:11.337Z,12.30
2018-04-17T00:21:38.831Z,12.30
2018-04-17T00:24:06.326Z,12.30
2018-04-17T00:26:33.861Z,12.30
2018-04-17T00:29:01.393Z,12.30
2018-04-17T00:31:29.673Z,12.10
2018-04-17T00:33:57.177Z,12.10
2018-04-17T00:36:25.586Z,12.10
2018-04-17T00:38:53.081Z,12.00
2018-04-17T00:41:20.595Z,12.00
2018-04-17T00:43:48.130Z,12.00
2018-04-17T00:46:15.646Z,11.90
2018-04-17T00:48:43.179Z,11.80
2018-04-17T00:51:10.684Z,11.70
2018-04-17T00:53:50.171Z,11.70
2018-04-17T00:56:17.683Z,11.70
2018-04-17T00:58:45.215Z,11.60
2018-04-17T01:01:13.489Z,11.60
2018-04-17T01:03:41.779Z,11.60
2018-04-17T01:06:09.275Z,11.60
2018-04-17T01:08:36.769Z,11.60
2018-04-17T01:11:05.074Z,11.50
2018-04-17T01:13:32.606Z,11.50
2018-04-17T01:16:00.129Z,11.50
2018-04-17T01:18:27.662Z,11.50
2018-04-17T01:20:55.193Z,11.50
2018-04-17T01:23:23.474Z,11.50
2018-04-17T01:25:51.011Z,11.40
2018-04-17T01:28:19.282Z,11.50
2018-04-17T01:30:46.813Z,11.40
2018-04-17T01:33:14.339Z,11.40
2018-04-17T01:35:41.877Z,11.50
2018-04-17T01:38:10.153Z,11.40
2018-04-17T01:40:38.410Z,11.40
2018-04-17T01:43:05.921Z,11.40
2018-04-17T01:45:33.440Z,11.30
2018-04-17T01:48:01.724Z,11.20
2018-04-17T01:50:29.990Z,11.30
2018-04-17T01:52:58.281Z,11.20
2018-04-17T01:55:26.575Z,11.20
2018-04-17T01:57:54.113Z,11.20
2018-04-17T02:00:22.371Z,11.20
2018-04-17T02:02:49.872Z,11.10
2018-04-17T02:05:17.436Z,11.10
2018-04-17T02:07:44.962Z,11.10
2018-04-17T02:10:22.957Z,11.00
2018-04-17T02:12:50.446Z,11.00
2018-04-17T02:15:17.950Z,11.00
2018-04-17T02:17:45.483Z,11.00
2018-04-17T02:20:13.000Z,10.90
2018-04-17T02:22:41.288Z,10.80
2018-04-17T02:25:09.569Z,10.80
2018-04-17T02:27:37.860Z,10.80
2018-04-17T02:30:05.382Z,10.80
2018-04-17T02:32:32.879Z,10.80
2018-04-17T02:35:00.406Z,10.70
2018-04-17T02:37:28.685Z,10.50
2018-04-17T02:39:56.941Z,10.40
2018-04-17T02:42:24.462Z,10.40
2018-04-17T02:44:51.982Z,10.40
2018-04-17T02:47:20.264Z,10.40
2018-04-17T02:49:47.771Z,10.40
2018-04-17T02:52:15.295Z,10.40
2018-04-17T02:54:42.815Z,10.40
2018-04-17T02:57:10.341Z,10.40
2018-04-17T02:59:37.869Z,10.30
2018-04-17T03:02:05.369Z,10.30
2018-04-17T03:04:32.880Z,10.30
2018-04-17T03:07:00.395Z,10.20
2018-04-17T03:09:27.878Z,10.30
2018-04-17T03:11:55.417Z,10.20
2018-04-17T03:14:22.915Z,10.20
2018-04-17T03:16:50.417Z,10.20
2018-04-17T03:19:17.938Z,10.10
2018-04-17T03:21:45.454Z,10.10
2018-04-17T03:24:12.993Z,10.10
2018-04-17T03:26:40.493Z,10.10
2018-04-17T03:29:08.002Z,10.00
2018-04-17T03:31:35.525Z,10.00
2018-04-17T03:34:03.056Z,9.90
2018-04-17T03:36:31.330Z,9.90
2018-04-17T03:38:59.725Z,9.90
2018-04-17T03:41:27.992Z,10.00
2018-04-17T03:43:55.503Z,9.90
2018-04-17T03:46:23.023Z,9.90
2018-04-17T03:48:50.518Z,9.80
2018-04-17T03:51:18.034Z,9.70
2018-04-17T03:53:45.549Z,9.80
2018-04-17T03:56:13.056Z,9.80
2018-04-17T03:58:40.563Z,9.80
2018-04-17T04:01:08.059Z,9.80
2018-04-17T04:03:35.564Z,9.70
2018-04-17T04:06:03.082Z,9.70
2018-04-17T04:08:30.611Z,9.70
2018-04-17T04:10:58.112Z,9.70
2018-04-17T04:13:25.647Z,9.70
2018-04-17T04:15:53.133Z,9.70
2018-04-17T04:18:32.443Z,9.70
2018-04-17T04:21:12.397Z,9.60
2018-04-17T04:23:51.769Z,9.60
2018-04-17T04:26:27.003Z,9.60
2018-04-17T04:28:54.511Z,9.60
2018-04-17T04:31:22.016Z,9.60
2018-04-17T04:33:49.536Z,9.60
2018-04-17T04:36:17.092Z,9.60
2018-04-17T04:38:44.653Z,9.60
2018-04-17T04:41:12.178Z,9.60
2018-04-17T04:43:39.733Z,9.60
2018-04-17T04:46:07.250Z,9.60
2018-04-17T04:48:34.790Z,9.50
2018-04-17T04:51:03.082Z,9.50
2018-04-17T04:53:31.347Z,9.50
2018-04-17T04:55:59.668Z,9.50
2018-04-17T04:58:27.194Z,9.50
2018-04-17T05:00:55.498Z,9.50
2018-04-17T05:03:23.000Z,9.50
2018-04-17T05:05:50.523Z,9.60
2018-04-17T05:08:18.029Z,9.60
2018-04-17T05:10:46.306Z,9.60
2018-04-17T05:13:14.598Z,9.60
2018-04-17T05:15:42.882Z,9.50
2018-04-17T05:18:11.176Z,9.50
2018-04-17T05:20:38.683Z,9.50
2018-04-17T05:23:06.240Z,9.50
2018-04-17T05:25:33.781Z,9.50
2018-04-17T05:28:01.267Z,9.50
2018-04-17T05:30:28.778Z,9.50
2018-04-17T05:32:56.301Z,9.60
2018-04-17T05:35:24.570Z,9.70
2018-04-17T05:37:52.853Z,9.80
2018-04-17T05:40:21.121Z,9.90
2018-04-17T05:42:49.411Z,9.90
2018-04-17T05:45:16.929Z,9.80
2018-04-17T05:47:44.443Z,9.90
2018-04-17T05:50:12.010Z,9.90
2018-04-17T05:52:39.486Z,9.90
2018-04-17T05:55:07.025Z,10.10
2018-04-17T05:57:34.594Z,10.20
2018-04-17T06:00:02.142Z,10.30
2018-04-17T06:02:29.640Z,10.30
2018-04-17T06:04:57.165Z,10.40
2018-04-17T06:07:24.663Z,10.50
2018-04-17T06:09:52.197Z,10.60
2018-04-17T06:12:19.730Z,10.70
2018-04-17T06:14:47.311Z,10.70
2018-04-17T06:17:14.851Z,10.90
2018-04-17T06:19:42.354Z,10.90
2018-04-17T06:22:09.909Z,11.00
2018-04-17T06:24:37.449Z,11.10
2018-04-17T06:27:04.951Z,11.20
2018-04-17T06:29:33.253Z,11.30
2018-04-17T06:32:00.761Z,11.30
2018-04-17T06:34:28.296Z,11.40
2018-04-17T06:36:55.802Z,11.50
2018-04-17T06:39:24.069Z,11.60
2018-04-17T06:41:51.614Z,11.60
2018-04-17T06:44:19.124Z,11.70
2018-04-17T06:46:46.660Z,11.80
2018-04-17T06:49:14.936Z,11.90
2018-04-17T06:51:43.237Z,12.00
2018-04-17T06:54:10.764Z,12.00
2018-04-17T06:56:38.284Z,12.10
2018-04-17T06:59:05.837Z,12.30
2018-04-17T07:01:33.376Z,12.40
2018-04-17T07:04:00.885Z,12.50
2018-04-17T07:06:28.440Z,12.60
2018-04-17T07:08:55.963Z,12.60
2018-04-17T07:11:23.529Z,12.70
2018-04-17T07:13:51.063Z,12.70
2018-04-17T07:16:18.585Z,12.80
2018-04-17T07:18:46.083Z,12.80
2018-04-17T07:21:13.677Z,12.90
2018-04-17T07:23:41.243Z,13.00
2018-04-17T07:26:08.761Z,13.00
2018-04-17T07:28:36.286Z,13.10
2018-04-17T07:31:04.594Z,13.30
2018-04-17T07:33:32.113Z,13.30
2018-04-17T07:35:59.658Z,13.40
2018-04-17T07:38:27.177Z,13.60
2018-04-17T07:40:54.738Z,13.60
2018-04-17T07:43:22.250Z,13.80
2018-04-17T07:45:49.801Z,13.90
2018-04-17T07:48:29.173Z,14.00
2018-04-17T07:50:57.466Z,14.20
2018-04-17T07:53:24.979Z,14.10
2018-04-17T07:55:52.529Z,14.20
2018-04-17T07:58:20.048Z,14.20
2018-04-17T08:00:47.582Z,14.30
2018-04-17T08:03:15.901Z,14.60
2018-04-17T08:05:43.412Z,14.50
2018-04-17T08:08:11.715Z,14.60
2018-04-17T08:10:39.252Z,14.60
2018-04-17T08:13:07.553Z,14.80
2018-04-17T08:15:35.073Z,14.80
2018-04-17T08:18:03.408Z,15.00
2018-04-17T08:20:30.938Z,15.00
2018-04-17T08:22:58.528Z,15.20
2018-04-17T08:25:26.103Z,15.60
2018-04-17T08:27:53.680Z,15.80
2018-04-17T08:30:21.179Z,15.90
2018-04-17T08:32:48.761Z,16.00
2018-04-17T08:35:16.293Z,16.10
2018-04-17T08:37:44.613Z,15.90
2018-04-17T08:40:12.133Z,15.90
2018-04-17T08:42:39.685Z,16.00
2018-04-17T08:45:07.224Z,16.00
2018-04-17T08:47:35.524Z,16.10
2018-04-17T08:50:03.820Z,16.20
2018-04-17T08:52:31.383Z,16.20
2018-04-17T08:54:58.900Z,16.30
2018-04-17T08:57:27.213Z,16.50
2018-04-17T08:59:54.802Z,16.60
2018-04-17T09:02:22.352Z,16.60
2018-04-17T09:04:49.893Z,16.70
2018-04-17T09:07:17.423Z,16.80
2018-04-17T09:09:45.737Z,16.90
2018-04-17T09:12:13.249Z,16.90
2018-04-17T09:14:40.790Z,16.90
2018-04-17T09:17:08.318Z,16.80
2018-04-17T09:19:35.860Z,17.00
2018-04-17T09:22:03.372Z,17.10
2018-04-17T09:24:30.905Z,17.40
2018-04-17T09:26:58.407Z,17.60
2018-04-17T09:29:25.954Z,17.70
2018-04-17T09:31:53.464Z,17.70
2018-04-17T09:34:20.999Z,17.70
2018-04-17T09:36:49.291Z,17.70
2018-04-17T09:39:16.829Z,17.70
2018-04-17T09:41:45.123Z,17.80
2018-04-17T09:44:12.628Z,17.80
2018-04-17T09:46:40.166Z,18.00
2018-04-17T09:49:07.694Z,18.20
2018-04-17T09:51:35.205Z,18.40
2018-04-17T09:54:02.761Z,18.50
2018-04-17T09:56:30.292Z,18.60
2018-04-17T09:58:57.845Z,18.50
2018-04-17T10:01:25.391Z,18.70
2018-04-17T10:03:52.927Z,18.40
2018-04-17T10:06:21.202Z,18.80
2018-04-17T10:08:49.509Z,19.10
2018-04-17T10:11:17.034Z,19.10
2018-04-17T10:13:45.329Z,19.30
2018-04-17T10:16:13.620Z,19.20
2018-04-17T10:18:41.154Z,19.20
2018-04-17T10:21:08.679Z,19.20
2018-04-17T10:23:36.193Z,19.00
2018-04-17T10:26:03.723Z,19.20
2018-04-17T10:28:32.024Z,19.60
2018-04-17T10:30:59.539Z,19.60
2018-04-17T10:33:27.043Z,20.00
2018-04-17T10:35:54.564Z,20.10
2018-04-17T10:38:22.848Z,20.20
2018-04-17T10:40:50.385Z,20.20
2018-04-17T10:43:17.933Z,20.30
2018-04-17T10:45:45.472Z,20.90
2018-04-17T10:48:12.984Z,21.30
2018-04-17T10:50:41.257Z,22.40
2018-04-17T10:53:08.808Z,22.40
2018-04-17T10:55:36.297Z,23.00
2018-04-17T10:58:04.590Z,23.70
2018-04-17T11:00:32.118Z,23.60
2018-04-17T11:03:00.405Z,23.40
2018-04-17T11:05:28.701Z,23.80
2018-04-17T11:07:56.226Z,23.80
2018-04-17T11:10:24.533Z,22.70
2018-04-17T11:12:52.057Z,22.70
2018-04-17T11:15:20.345Z,24.30
2018-04-17T11:17:48.621Z,24.60
2018-04-17T11:20:16.935Z,25.10
2018-04-17T11:22:44.431Z,25.10
2018-04-17T11:25:11.966Z,24.10
2018-04-17T11:27:39.469Z,23.50
2018-04-17T11:30:07.765Z,24.50
2018-04-17T11:32:35.280Z,24.50
2018-04-17T11:35:02.797Z,25.20
2018-04-17T11:37:30.345Z,25.20
2018-04-17T11:39:57.897Z,25.40
2018-04-17T11:42:26.168Z,25.20
2018-04-17T11:44:54.957Z,24.70
2018-04-17T11:47:22.504Z,24.60
2018-04-17T11:49:50.784Z,24.30
2018-04-17T11:52:19.091Z,24.70
2018-04-17T11:54:46.620Z,24.70
2018-04-17T11:57:14.904Z,26.30
2018-04-17T11:59:43.188Z,26.40
2018-04-17T12:02:10.718Z,26.40
2018-04-17T12:04:39.015Z,25.10
2018-04-17T12:07:07.302Z,25.20
2018-04-17T12:09:34.858Z,25.20
2018-04-17T12:12:02.379Z,24.90
2018-04-17T12:14:29.878Z,24.70
2018-04-17T12:16:57.405Z,25.00
2018-04-17T12:19:24.924Z,25.90
2018-04-17T12:21:53.218Z,26.40
2018-04-17T12:24:20.725Z,26.40
2018-04-17T12:26:49.004Z,27.40
2018-04-17T12:29:17.286Z,28.10
2018-04-17T12:31:44.832Z,28.00
2018-04-17T12:34:13.094Z,27.80
2018-04-17T12:36:41.449Z,27.50
2018-04-17T12:39:08.937Z,27.50
2018-04-17T12:41:37.198Z,26.10
2018-04-17T12:44:05.518Z,26.60
2018-04-17T12:46:33.030Z,26.50
2018-04-17T12:49:00.549Z,27.10
2018-04-17T12:51:28.043Z,26.50
2018-04-17T12:53:55.540Z,26.10
2018-04-17T12:56:23.104Z,25.60
2018-04-17T12:58:50.621Z,25.80
2018-04-17T13:01:18.145Z,26.50
2018-04-17T13:03:45.666Z,27.50
2018-04-17T13:06:13.950Z,27.80
2018-04-17T13:08:42.255Z,27.80
2018-04-17T13:11:09.816Z,27.80
2018-04-17T13:13:37.356Z,27.40
2018-04-17T13:16:04.845Z,26.50
2018-04-17T13:18:32.378Z,26.70
2018-04-17T13:20:59.894Z,27.40
2018-04-17T13:23:27.379Z,27.40
2018-04-17T13:25:54.953Z,27.30
2018-04-17T13:28:22.475Z,27.70
2018-04-17T13:30:50.009Z,28.10
2018-04-17T13:33:17.501Z,28.30
2018-04-17T13:35:45.779Z,28.20
2018-04-17T13:38:14.042Z,28.60
2018-04-17T13:40:41.565Z,28.60
2018-04-17T13:43:09.092Z,27.80
2018-04-17T13:45:36.622Z,28.00
2018-04-17T13:48:04.928Z,28.50
2018-04-17T13:50:32.459Z,28.50
2018-04-17T13:53:00.766Z,29.50
2018-04-17T13:55:28.265Z,29.50
2018-04-17T13:57:55.770Z,30.40
2018-04-17T14:00:23.309Z,29.30
2018-04-17T14:02:50.993Z,28.20
2018-04-17T14:05:18.605Z,28.20
2018-04-17T14:07:46.149Z,29.10
2018-04-17T14:10:13.664Z,29.60
2018-04-17T14:12:42.131Z,30.60
2018-04-17T14:15:10.413Z,29.80
2018-04-17T14:17:38.708Z,30.20
2018-04-17T14:20:06.255Z,30.20
2018-04-17T14:22:34.556Z,28.60
2018-04-17T14:25:02.091Z,28.60
2018-04-17T14:27:29.591Z,29.90
2018-04-17T14:29:57.116Z,30.20
2018-04-17T14:32:24.674Z,30.60
2018-04-17T14:34:52.190Z,31.40
2018-04-17T14:37:19.729Z,32.10
2018-04-17T14:39:47.228Z,31.90
2018-04-17T14:42:15.537Z,30.50
2018-04-17T14:44:43.064Z,30.50
2018-04-17T14:47:11.364Z,31.60
2018-04-17T14:49:38.902Z,31.60
2018-04-17T14:52:07.234Z,31.90
2018-04-17T14:54:34.762Z,31.90
2018-04-17T14:57:02.262Z,30.80
2018-04-17T14:59:29.794Z,31.70
2018-04-17T15:01:57.297Z,30.50
2018-04-17T15:04:24.857Z,29.30
2018-04-17T15:06:52.368Z,28.50
2018-04-17T15:09:19.925Z,29.00
2018-04-17T15:11:47.440Z,29.60
2018-04-17T15:14:14.962Z,30.40
2018-04-17T15:16:42.465Z,30.90
2018-04-17T15:19:10.757Z,30.90
2018-04-17T15:21:39.070Z,30.90
2018-04-17T15:24:06.586Z,30.90
2018-04-17T15:26:34.899Z,30.30
2018-04-17T15:29:02.454Z,30.30
2018-04-17T15:31:30.015Z,30.40
2018-04-17T15:33:57.549Z,29.70
2018-04-17T15:36:25.829Z,29.10
2018-04-17T15:38:54.108Z,29.00
2018-04-17T15:41:21.661Z,29.00
2018-04-17T15:43:49.976Z,28.60
2018-04-17T15:46:17.507Z,28.60
2018-04-17T15:48:45.032Z,28.60
2018-04-17T15:51:12.531Z,28.10
2018-04-17T15:53:40.051Z,28.10
2018-04-17T15:56:07.555Z,28.50
2018-04-17T15:58:35.121Z,27.80
2018-04-17T16:01:02.629Z,27.70
2018-04-17T16:03:30.206Z,28.00
2018-04-17T16:05:57.733Z,28.10
2018-04-17T16:08:25.272Z,28.10
2018-04-17T16:10:52.772Z,27.80
2018-04-17T16:13:21.081Z,27.10
2018-04-17T16:15:48.588Z,27.10
2018-04-17T16:18:16.110Z,26.90
2018-04-17T16:20:43.623Z,27.20
2018-04-17T16:23:11.889Z,27.50
2018-04-17T16:25:39.415Z,27.50
2018-04-17T16:28:06.923Z,27.50
2018-04-17T16:30:35.207Z,27.00
2018-04-17T16:33:03.543Z,27.00
2018-04-17T16:35:31.001Z,27.00
2018-04-17T16:37:58.579Z,27.00
2018-04-17T16:40:26.861Z,26.30
2018-04-17T16:42:55.169Z,26.40
2018-04-17T16:45:22.799Z,26.40
2018-04-17T16:47:51.409Z,26.10
2018-04-17T16:50:19.149Z,26.10
2018-04-17T16:52:46.704Z,26.40
2018-04-17T16:55:14.227Z,26.50
2018-04-17T16:57:41.963Z,26.50
2018-04-17T17:00:09.742Z,26.50
2018-04-17T17:02:37.240Z,26.60
2018-04-17T17:05:04.786Z,26.70
2018-04-17T17:07:32.471Z,26.60
2018-04-17T17:10:01.074Z,26.20
2018-04-17T17:12:28.633Z,26.10
2018-04-17T17:14:56.229Z,26.10
2018-04-17T17:17:23.736Z,25.90
2018-04-17T17:19:52.144Z,25.60
2018-04-17T17:22:19.774Z,25.60
2018-04-17T17:24:47.268Z,25.40
2018-04-17T17:27:14.790Z,25.20
2018-04-17T17:29:43.083Z,25.50
2018-04-17T17:32:11.390Z,25.50
2018-04-17T17:34:38.900Z,25.50
2018-04-17T17:37:06.397Z,25.50
2018-04-17T17:39:33.935Z,25.50
2018-04-17T17:42:02.268Z,25.40
2018-04-17T17:44:30.157Z,25.30
2018-04-17T17:46:57.859Z,25.30
2018-04-17T17:49:25.401Z,25.10
2018-04-17T17:51:53.695Z,24.70
2018-04-17T17:54:21.293Z,24.70
2018-04-17T17:56:49.094Z,24.60
2018-04-17T17:59:17.516Z,24.30
2018-04-17T18:01:45.082Z,24.30
2018-04-17T18:04:12.628Z,24.00
2018-04-17T18:06:40.304Z,23.80
2018-04-17T18:09:08.173Z,23.70
2018-04-17T18:11:35.692Z,23.60
2018-04-17T18:14:04.001Z,23.20
2018-04-17T18:16:31.516Z,23.20
2018-04-17T18:18:59.827Z,23.00
2018-04-17T18:21:27.357Z,23.00
2018-04-17T18:23:55.659Z,22.70
2018-04-17T18:26:23.185Z,22.70
2018-04-17T18:28:51.502Z,22.40
2018-04-17T18:31:18.987Z,22.40
2018-04-17T18:33:46.500Z,22.20
2018-04-17T18:36:14.034Z,22.10
2018-04-17T18:38:42.312Z,21.50
2018-04-17T18:41:10.605Z,21.40
2018-04-17T18:43:38.188Z,21.30
2018-04-17T18:46:05.688Z,21.20
2018-04-17T18:48:34.030Z,21.00
2018-04-17T18:51:01.554Z,20.90
2018-04-17T18:53:29.842Z,20.80
2018-04-17T18:55:57.389Z,20.80
2018-04-17T18:58:25.674Z,20.70
2018-04-17T19:00:53.221Z,20.60
2018-04-17T19:03:21.494Z,20.50
2018-04-17T19:05:49.790Z,20.30
2018-04-17T19:08:17.319Z,20.30
2018-04-17T19:10:44.855Z,20.20
2018-04-17T19:13:12.364Z,20.10
2018-04-17T19:15:39.930Z,20.00
2018-04-17T19:18:07.435Z,19.90
2018-04-17T19:20:34.982Z,19.80
2018-04-17T19:23:02.501Z,19.60
2018-04-17T19:25:30.075Z,19.40
2018-04-17T19:27:57.650Z,19.20
2018-04-17T19:30:25.892Z,19.30
2018-04-17T19:32:54.200Z,19.20
2018-04-17T19:35:21.742Z,19.20
2018-04-17T19:37:49.282Z,19.10
2018-04-17T19:40:17.593Z,19.00
2018-04-17T19:42:45.154Z,19.00
2018-04-17T19:45:12.686Z,19.00
2018-04-17T19:47:40.212Z,18.90
2018-04-17T19:50:07.755Z,18.80
2018-04-17T19:52:35.269Z,18.80
2018-04-17T19:55:02.801Z,18.70
2018-04-17T19:57:31.062Z,18.60
2018-04-17T19:59:58.578Z,18.50
2018-04-17T20:02:26.105Z,18.50
2018-04-17T20:04:54.414Z,18.40
2018-04-17T20:07:21.969Z,18.30
2018-04-17T20:09:49.485Z,18.10
2018-04-17T20:12:17.748Z,18.00
2018-04-17T20:14:45.299Z,18.00
2018-04-17T20:17:12.798Z,18.00
2018-04-17T20:19:41.105Z,17.90
2018-04-17T20:22:08.623Z,17.90
2018-04-17T20:24:36.901Z,17.70
2018-04-17T20:27:05.209Z,17.70
2018-04-17T20:29:32.737Z,17.60
2018-04-17T20:32:00.999Z,17.50
2018-04-17T20:34:29.285Z,17.30
2018-04-17T20:36:57.567Z,17.20
2018-04-17T20:39:25.837Z,17.10
2018-04-17T20:41:54.136Z,17.00
2018-04-17T20:44:21.652Z,16.90
2018-04-17T20:46:49.184Z,16.90
2018-04-17T20:49:16.713Z,16.90
2018-04-17T20:51:44.265Z,17.00
2018-04-17T20:54:12.585Z,16.80
2018-04-17T20:56:40.111Z,16.80
2018-04-17T20:59:07.645Z,16.80
2018-04-17T21:01:35.918Z,16.80
2018-04-17T21:04:04.270Z,16.70
2018-04-17T21:06:31.768Z,16.60
2018-04-17T21:08:59.314Z,16.60
2018-04-17T21:11:27.579Z,16.50
2018-04-17T21:13:55.099Z,16.50
2018-04-17T21:16:22.617Z,16.50
2018-04-17T21:18:50.894Z,16.30
2018-04-17T21:21:19.184Z,16.30
2018-04-17T21:23:46.673Z,16.20
2018-04-17T21:26:14.190Z,16.30
2018-04-17T21:28:42.492Z,16.10
2018-04-17T21:31:10.016Z,16.10
2018-04-17T21:33:38.327Z,16.00
2018-04-17T21:36:05.837Z,16.00
2018-04-17T21:38:33.335Z,16.00
2018-04-17T21:41:00.842Z,15.90
2018-04-17T21:43:28.366Z,15.90
2018-04-17T21:45:55.913Z,15.90
2018-04-17T21:48:23.429Z,15.80
2018-04-17T21:50:51.685Z,15.70
2018-04-17T21:53:19.222Z,15.70
2018-04-17T21:55:46.705Z,15.60
2018-04-17T21:58:14.236Z,15.50
2018-04-17T22:00:41.749Z,15.40
2018-04-17T22:03:10.018Z,15.40
2018-04-17T22:05:38.325Z,15.40
2018-04-17T22:08:05.867Z,15.40
2018-04-17T22:10:34.145Z,15.30
2018-04-17T22:13:02.414Z,15.30
2018-04-17T22:15:30.712Z,15.20
2018-04-17T22:17:58.208Z,15.20
2018-04-17T22:20:25.727Z,15.20
2018-04-17T22:22:53.314Z,15.10
2018-04-17T22:25:20.820Z,15.00
2018-04-17T22:27:48.357Z,15.00
2018-04-17T22:30:15.882Z,14.90
2018-04-17T22:32:43.409Z,14.70
2018-04-17T22:35:11.699Z,14.40
2018-04-17T22:37:39.205Z,14.40
2018-04-17T22:40:06.777Z,14.40
2018-04-17T22:42:34.300Z,14.30
2018-04-17T22:45:01.846Z,14.30
2018-04-17T22:47:29.348Z,14.10
2018-04-17T22:49:56.853Z,14.10
2018-04-17T22:52:24.373Z,14.10
2018-04-17T22:54:51.919Z,14.10
2018-04-17T22:57:19.464Z,14.10
2018-04-17T22:59:47.031Z,14.10
2018-04-17T23:02:14.556Z,14.10
2018-04-17T23:04:42.057Z,14.10
2018-04-17T23:07:09.602Z,14.10
2018-04-17T23:09:37.155Z,14.00
2018-04-17T23:12:04.645Z,14.00
2018-04-17T23:14:32.186Z,14.00
2018-04-17T23:16:59.693Z,14.00
2018-04-17T23:19:27.217Z,13.90
2018-04-17T23:21:54.750Z,13.80
2018-04-17T23:24:22.285Z,13.70
2018-04-17T23:26:49.810Z,13.60
2018-04-17T23:29:18.092Z,13.50
2018-04-17T23:31:45.634Z,13.50
2018-04-17T23:34:13.164Z,13.50
2018-04-17T23:36:40.660Z,13.50
2018-04-17T23:39:08.213Z,13.50
2018-04-17T23:41:35.732Z,13.40
2018-04-17T23:44:03.285Z,13.30
2018-04-17T23:46:31.575Z,13.30
2018-04-17T23:48:59.092Z,13.30
2018-04-17T23:51:26.602Z,13.20
2018-04-17T23:53:54.126Z,13.30
2018-04-17T23:56:21.629Z,13.20
2018-04-17T23:58:49.158Z,13.20
